SCORE25 KNHK-KNIP
Flight info
| Callsign | SCORE25 |
|---|---|
| Flight time | N/A |
| Altitude | 28000 |
| Route | SWABY1 HPW GEARS Q87 RAYVO ALLMA ALCRN1 |
| Aircraft | C30J/M-SDE2E3FGRY/H |
Departure
| Time | N/A |
|---|---|
| Airport | Patuxent River Naval Air Station (Trapnell Field) (KNHK) |
Arrival
| Time | 2026-04-30 18:12 |
|---|---|
| Airport | Jacksonville Naval Air Station (Towers Field) (KNIP) |
| Time | Latitude | Longitude | Altitude | Speed | Heading |
|---|---|---|---|---|---|
| 2026-04-30 17:39 | 32.00226 | -81.98276 | 27888 ft | 283 kts | 232° |
| 2026-04-30 17:41 | 31.88902 | -82.11126 | 27896 ft | 283 kts | 232° |
| 2026-04-30 17:42 | 31.86571 | -82.13758 | 27897 ft | 283 kts | 232° |
| 2026-04-30 17:42 | 31.82305 | -82.18570 | 27901 ft | 283 kts | 232° |
| 2026-04-30 17:43 | 31.79460 | -82.21782 | 27903 ft | 283 kts | 232° |
| 2026-04-30 17:44 | 31.75227 | -82.26556 | 27904 ft | 277 kts | 232° |
| 2026-04-30 17:44 | 31.71531 | -82.30732 | 27907 ft | 276 kts | 233° |
| 2026-04-30 17:46 | 31.64436 | -82.38711 | 26428 ft | 285 kts | 231° |
| 2026-04-30 17:47 | 31.58671 | -82.45157 | 24948 ft | 286 kts | 231° |
| 2026-04-30 17:48 | 31.50774 | -82.47025 | 23476 ft | 336 kts | 177° |
| 2026-04-30 17:48 | 31.43936 | -82.44782 | 22158 ft | 342 kts | 170° |
| 2026-04-30 17:49 | 31.35020 | -82.40965 | 20355 ft | 338 kts | 167° |
| 2026-04-30 17:50 | 31.26306 | -82.37100 | 18559 ft | 334 kts | 165° |
| 2026-04-30 17:51 | 31.19906 | -82.34015 | 17207 ft | 329 kts | 163° |
| 2026-04-30 17:52 | 31.13646 | -82.30931 | 15856 ft | 322 kts | 163° |
| 2026-04-30 17:53 | 31.03556 | -82.25960 | 13605 ft | 307 kts | 163° |
| 2026-04-30 17:54 | 30.96321 | -82.22268 | 13005 ft | 298 kts | 161° |
| 2026-04-30 17:55 | 30.88695 | -82.18061 | 12781 ft | 310 kts | 161° |
| 2026-04-30 17:56 | 30.80975 | -82.13787 | 11782 ft | 304 kts | 161° |
| 2026-04-30 17:57 | 30.75279 | -82.10636 | 11019 ft | 299 kts | 160° |
| 2026-04-30 17:58 | 30.69683 | -82.07537 | 10263 ft | 297 kts | 160° |
| 2026-04-30 17:59 | 30.62251 | -82.03438 | 9263 ft | 294 kts | 159° |
| 2026-04-30 18:00 | 30.55995 | -81.99981 | 8414 ft | 291 kts | 159° |
| 2026-04-30 18:00 | 30.50694 | -81.96702 | 8005 ft | 290 kts | 137° |
| 2026-04-30 18:01 | 30.48385 | -81.92891 | 8001 ft | 292 kts | 125° |
| 2026-04-30 18:02 | 30.45132 | -81.87040 | 7351 ft | 280 kts | 124° |
| 2026-04-30 18:02 | 30.42306 | -81.81978 | 6673 ft | 271 kts | 124° |
| 2026-04-30 18:03 | 30.39858 | -81.77626 | 6075 ft | 266 kts | 125° |
| 2026-04-30 18:04 | 30.36834 | -81.72293 | 5321 ft | 262 kts | 124° |
| 2026-04-30 18:05 | 30.34630 | -81.64488 | 4382 ft | 256 kts | 94° |
| 2026-04-30 18:06 | 30.34003 | -81.56362 | 3569 ft | 250 kts | 94° |
| 2026-04-30 18:07 | 30.30481 | -81.51548 | 2743 ft | 199 kts | 175° |
| 2026-04-30 18:08 | 30.26632 | -81.51239 | 2464 ft | 178 kts | 199° |
| 2026-04-30 18:09 | 30.23250 | -81.54665 | 2030 ft | 137 kts | 242° |
| 2026-04-30 18:10 | 30.22992 | -81.58133 | 1532 ft | 134 kts | 279° |
| 2026-04-30 18:11 | 30.23158 | -81.62738 | 760 ft | 142 kts | 273° |
| 2026-04-30 18:11 | 30.23165 | -81.66007 | 87 ft | 125 kts | 271° |
| 2026-04-30 18:12 | 30.23173 | -81.67969 | 31 ft | 35 kts | 266° |
| 2026-04-30 18:13 | 30.23132 | -81.68245 | 31 ft | 7 kts | 195° |
| 2026-04-30 18:13 | 30.23031 | -81.68167 | 31 ft | 13 kts | 88° |
| 2026-04-30 18:14 | 30.22896 | -81.68097 | 31 ft | 7 kts | 178° |
| 2026-04-30 18:15 | 30.22840 | -81.68046 | 31 ft | 0 kts | 92° |
| 2026-04-30 18:15 | 30.22839 | -81.68046 | 31 ft | 0 kts | 92° |